Terminal Aerodrome Forecast
Issued by NWS

Current Version | Previous Version | Text Only | Print | Product List | Glossary On
Versions: 1 2 3 4 5 6 7 8 9 10 11 12 13 14 15 16 17 18 19 20 21 22 23 24 25 26 27 28 29 30 31 32 33 34 35 36 37 38 39 40 41 42 43 44 45 46
000
FTUS46 KOTX 211507 AAA
TAFSFF
TAF AMD
KSFF 211507Z 2115/2212 22008KT P6SM OVC015
     FM211800 22009KT P6SM BKN025
     FM212030 22010G16KT P6SM BKN040
     FM220200 VRB03KT P6SM SCT040 BKN200
     FM220900 16004KT P6SM FEW060 BKN130 OVC220=

USA.gov is the U.S. government's official web portal to all federal, state and local government web resources and services.